createdAt,value
2019-05-10T00:00:27.506Z,99.90
2019-05-10T00:03:14.599Z,99.90
2019-05-10T00:06:01.592Z,99.90
2019-05-10T00:08:45.701Z,99.90
2019-05-10T00:11:39.117Z,99.90
2019-05-10T00:14:29.488Z,99.90
2019-05-10T00:17:03.844Z,99.90
2019-05-10T00:19:33.031Z,99.90
2019-05-10T00:22:02.083Z,99.90
2019-05-10T00:24:31.193Z,99.90
2019-05-10T00:27:00.277Z,99.90
2019-05-10T00:29:29.375Z,99.90
2019-05-10T00:31:58.450Z,99.90
2019-05-10T00:34:27.532Z,99.90
2019-05-10T00:36:56.592Z,99.90
2019-05-10T00:39:25.751Z,99.90
2019-05-10T00:41:54.828Z,99.90
2019-05-10T00:44:24.027Z,99.90
2019-05-10T00:46:53.111Z,99.90
2019-05-10T00:49:22.191Z,99.90
2019-05-10T00:51:51.291Z,99.90
2019-05-10T00:54:20.381Z,99.90
2019-05-10T00:56:49.470Z,99.90
2019-05-10T00:59:18.559Z,99.90
2019-05-10T01:01:47.845Z,99.90
2019-05-10T01:04:16.907Z,99.90
2019-05-10T01:06:45.993Z,99.90
2019-05-10T01:09:15.143Z,99.90
2019-05-10T01:11:44.235Z,99.90
2019-05-10T01:14:13.336Z,99.90
2019-05-10T01:16:42.421Z,99.90
2019-05-10T01:19:11.511Z,99.90
2019-05-10T01:21:40.602Z,99.90
2019-05-10T01:24:09.661Z,99.90
2019-05-10T01:26:38.879Z,99.90
2019-05-10T01:29:07.970Z,99.90
2019-05-10T01:31:37.107Z,99.90
2019-05-10T01:34:06.207Z,99.90
2019-05-10T01:36:35.281Z,99.90
2019-05-10T01:39:05.846Z,99.90
2019-05-10T01:41:34.993Z,99.90
2019-05-10T01:44:04.075Z,99.90
2019-05-10T01:46:33.340Z,99.90
2019-05-10T01:49:02.436Z,99.90
2019-05-10T01:51:31.513Z,99.90
2019-05-10T01:54:00.704Z,99.90
2019-05-10T01:56:29.910Z,99.90
2019-05-10T01:58:59.073Z,99.90
2019-05-10T02:01:28.165Z,99.90
2019-05-10T02:03:57.239Z,99.90
2019-05-10T02:06:26.329Z,99.90
2019-05-10T02:08:55.406Z,99.90
2019-05-10T02:11:24.540Z,99.90
2019-05-10T02:13:53.619Z,99.90
2019-05-10T02:16:22.703Z,99.90
2019-05-10T02:18:51.791Z,99.90
2019-05-10T02:21:20.893Z,99.90
2019-05-10T02:23:50.060Z,99.90
2019-05-10T02:26:19.140Z,99.90
2019-05-10T02:28:48.214Z,99.90
2019-05-10T02:31:21.423Z,99.90
2019-05-10T02:33:48.153Z,99.90
2019-05-10T02:36:17.228Z,99.90
2019-05-10T02:38:46.330Z,99.90
2019-05-10T02:41:15.410Z,99.90
2019-05-10T02:43:52.328Z,99.90
2019-05-10T02:46:21.420Z,99.90
2019-05-10T02:48:50.516Z,99.90
2019-05-10T02:51:19.608Z,99.90
2019-05-10T02:53:49.179Z,99.90
2019-05-10T02:56:29.772Z,99.90
2019-05-10T02:58:49.868Z,99.90
2019-05-10T03:01:21.299Z,99.90
2019-05-10T03:03:53.051Z,99.90
2019-05-10T03:06:24.546Z,99.90
2019-05-10T03:08:53.829Z,99.90
2019-05-10T03:11:22.847Z,99.90
2019-05-10T03:13:52.644Z,99.90
2019-05-10T03:16:22.771Z,99.90
2019-05-10T03:18:52.945Z,99.90
2019-05-10T03:21:23.702Z,99.90
2019-05-10T03:23:52.881Z,99.90
2019-05-10T03:26:21.962Z,99.90
2019-05-10T03:28:51.588Z,99.90
2019-05-10T03:31:20.715Z,99.90
2019-05-10T03:33:55.675Z,99.90
2019-05-10T03:36:20.601Z,99.90
2019-05-10T03:38:49.689Z,99.90
2019-05-10T03:41:18.822Z,99.90
2019-05-10T03:43:47.944Z,99.90
2019-05-10T03:46:17.147Z,99.90
2019-05-10T03:48:46.286Z,99.90
2019-05-10T03:51:15.446Z,99.90
2019-05-10T03:53:44.536Z,99.90
2019-05-10T03:56:13.616Z,99.90
2019-05-10T03:58:42.731Z,99.90
2019-05-10T04:01:11.947Z,99.90
2019-05-10T04:03:41.053Z,99.90
2019-05-10T04:06:10.176Z,99.90
2019-05-10T04:08:39.254Z,99.90
2019-05-10T04:11:08.340Z,99.90
2019-05-10T04:13:37.443Z,99.90
2019-05-10T04:16:06.530Z,99.90
2019-05-10T04:18:35.618Z,99.90
2019-05-10T04:21:04.726Z,99.90
2019-05-10T04:23:33.875Z,99.90
2019-05-10T04:26:02.945Z,99.90
2019-05-10T04:28:32.032Z,99.90
2019-05-10T04:31:01.111Z,99.90
2019-05-10T04:33:30.274Z,99.90
2019-05-10T04:35:59.345Z,99.90
2019-05-10T04:38:28.485Z,99.90
2019-05-10T04:40:57.642Z,99.90
2019-05-10T04:43:26.698Z,99.90
2019-05-10T04:45:55.790Z,99.90
2019-05-10T04:48:24.882Z,99.90
2019-05-10T04:50:53.982Z,99.90
2019-05-10T04:53:23.085Z,99.90
2019-05-10T04:55:52.168Z,99.90
2019-05-10T04:58:21.259Z,99.90
2019-05-10T05:00:50.369Z,99.90
2019-05-10T05:03:19.459Z,99.90
2019-05-10T05:05:53.223Z,99.90
2019-05-10T05:08:22.318Z,99.90
2019-05-10T05:10:51.419Z,99.90
2019-05-10T05:13:20.486Z,99.90
2019-05-10T05:15:49.570Z,99.90
2019-05-10T05:18:18.662Z,99.90
2019-05-10T05:20:47.758Z,99.90
2019-05-10T05:23:16.859Z,99.90
2019-05-10T05:25:45.944Z,99.90
2019-05-10T05:28:18.423Z,99.90
2019-05-10T05:30:45.764Z,99.90
2019-05-10T05:33:14.842Z,99.90
2019-05-10T05:35:43.938Z,99.90
2019-05-10T05:38:13.042Z,99.90
2019-05-10T05:40:42.132Z,99.90
2019-05-10T05:43:11.209Z,99.90
2019-05-10T05:45:40.314Z,99.90
2019-05-10T05:48:09.414Z,99.90
2019-05-10T05:50:38.514Z,99.90
2019-05-10T05:53:07.604Z,99.90
2019-05-10T05:55:36.711Z,99.90
2019-05-10T05:58:08.643Z,99.90
2019-05-10T06:00:44.379Z,99.90
2019-05-10T06:03:07.529Z,99.90
2019-05-10T06:05:37.366Z,99.90
2019-05-10T06:08:21.263Z,99.90
2019-05-10T06:10:43.789Z,99.90
2019-05-10T06:13:11.109Z,99.90
2019-05-10T06:15:40.187Z,99.90
2019-05-10T06:18:12.164Z,99.90
2019-05-10T06:20:44.459Z,99.90
2019-05-10T06:23:13.340Z,99.90
2019-05-10T06:25:42.998Z,99.90
2019-05-10T06:28:25.648Z,99.90
2019-05-10T06:30:43.250Z,99.90
2019-05-10T06:33:13.228Z,99.90
2019-05-10T06:35:42.623Z,99.90
2019-05-10T06:38:11.724Z,99.90
2019-05-10T06:40:46.768Z,99.90
2019-05-10T06:43:13.484Z,99.90
2019-05-10T06:45:46.695Z,99.90
2019-05-10T06:48:13.231Z,99.90
2019-05-10T06:50:42.398Z,99.90
2019-05-10T06:53:11.519Z,99.90
2019-05-10T06:55:40.677Z,99.90
2019-05-10T06:58:09.751Z,99.90
2019-05-10T07:00:44.897Z,99.90
2019-05-10T07:03:09.680Z,99.90
2019-05-10T07:05:38.788Z,99.90
2019-05-10T07:08:16.469Z,99.90
2019-05-10T07:10:38.680Z,99.90
2019-05-10T07:13:07.855Z,99.90
2019-05-10T07:15:42.173Z,99.90
2019-05-10T07:18:07.702Z,99.90
2019-05-10T07:20:36.850Z,99.90
2019-05-10T07:23:07.920Z,99.90
2019-05-10T07:25:37.747Z,99.90
2019-05-10T07:28:09.277Z,99.90
2019-05-10T07:30:41.240Z,99.90
2019-05-10T07:33:09.650Z,99.90
2019-05-10T07:35:38.969Z,99.90
2019-05-10T07:38:08.184Z,99.90
2019-05-10T07:40:37.279Z,99.90
2019-05-10T07:43:06.399Z,99.90
2019-05-10T07:45:35.683Z,99.90
2019-05-10T07:48:08.319Z,99.90
2019-05-10T07:50:35.594Z,99.90
2019-05-10T07:53:04.698Z,99.90
2019-05-10T07:55:33.830Z,99.90
2019-05-10T07:58:04.967Z,99.90
2019-05-10T08:00:38.253Z,99.90
2019-05-10T08:03:13.179Z,99.90
2019-05-10T08:05:35.857Z,99.90
2019-05-10T08:08:04.971Z,99.90
2019-05-10T08:10:34.069Z,99.90
2019-05-10T08:13:03.697Z,99.90
2019-05-10T08:15:34.829Z,99.90
2019-05-10T08:18:03.785Z,99.90
2019-05-10T08:20:46.379Z,99.90
2019-05-10T08:23:03.676Z,99.90
2019-05-10T08:25:36.389Z,99.90
2019-05-10T08:28:05.521Z,99.90
2019-05-10T08:30:52.385Z,99.90
2019-05-10T08:33:14.716Z,99.90
2019-05-10T08:35:46.562Z,99.90
2019-05-10T08:38:14.908Z,99.90
2019-05-10T08:40:43.987Z,99.90
2019-05-10T08:43:16.475Z,99.90
2019-05-10T08:45:49.032Z,99.90
2019-05-10T08:48:14.737Z,99.90
2019-05-10T08:50:52.324Z,99.90
2019-05-10T08:53:16.670Z,99.90
2019-05-10T08:55:45.479Z,99.90
2019-05-10T08:58:14.577Z,99.90
2019-05-10T09:00:54.263Z,99.90
2019-05-10T09:03:18.572Z,99.90
2019-05-10T09:05:45.335Z,99.90
2019-05-10T09:08:20.288Z,99.90
2019-05-10T09:10:45.230Z,99.90
2019-05-10T09:13:14.344Z,99.90
2019-05-10T09:15:51.745Z,99.90
2019-05-10T09:18:14.346Z,99.90
2019-05-10T09:20:43.498Z,99.90
2019-05-10T09:23:15.444Z,99.90
2019-05-10T09:25:43.406Z,99.90
2019-05-10T09:28:16.845Z,99.90
2019-05-10T09:30:56.460Z,99.90
2019-05-10T09:33:14.664Z,99.90
2019-05-10T09:35:49.748Z,99.90
2019-05-10T09:38:14.717Z,99.90
2019-05-10T09:40:51.118Z,99.90
2019-05-10T09:43:15.042Z,99.90
2019-05-10T09:45:44.239Z,99.90
2019-05-10T09:48:13.327Z,99.90
2019-05-10T09:50:47.043Z,99.90
2019-05-10T09:53:18.356Z,99.90
2019-05-10T09:55:45.471Z,99.90
2019-05-10T09:58:14.872Z,99.90
2019-05-10T10:00:43.986Z,99.90
2019-05-10T10:03:13.232Z,99.90
2019-05-10T10:05:42.445Z,99.90
2019-05-10T10:08:11.541Z,99.90
2019-05-10T10:10:40.820Z,99.90
2019-05-10T10:13:13.387Z,99.90
2019-05-10T10:15:40.765Z,99.90
2019-05-10T10:18:12.650Z,99.90
2019-05-10T10:20:43.919Z,99.90
2019-05-10T10:23:11.470Z,99.90
2019-05-10T10:25:42.131Z,99.90
2019-05-10T10:28:17.091Z,99.90
2019-05-10T10:30:42.190Z,99.90
2019-05-10T10:33:16.005Z,99.90
2019-05-10T10:35:42.101Z,99.90
2019-05-10T10:38:11.197Z,99.90
2019-05-10T10:40:44.812Z,99.90
2019-05-10T10:43:11.115Z,99.90
2019-05-10T10:45:40.186Z,99.90
2019-05-10T10:48:12.772Z,99.90
2019-05-10T10:50:44.370Z,99.90
2019-05-10T10:53:10.976Z,99.90
2019-05-10T10:55:40.411Z,99.90
2019-05-10T10:58:09.756Z,99.90
2019-05-10T11:00:39.388Z,99.90
2019-05-10T11:03:08.626Z,99.90
2019-05-10T11:05:37.747Z,99.90
2019-05-10T11:08:06.825Z,99.90
2019-05-10T11:10:35.926Z,99.90
2019-05-10T11:13:10.855Z,99.90
2019-05-10T11:15:36.677Z,99.90
2019-05-10T11:18:06.006Z,99.90
2019-05-10T11:20:35.134Z,99.60
2019-05-10T11:23:04.220Z,98.90
2019-05-10T11:25:33.306Z,99.90
2019-05-10T11:28:02.395Z,99.90
2019-05-10T11:30:32.555Z,99.90
2019-05-10T11:33:01.825Z,98.20
2019-05-10T11:35:34.206Z,94.70
2019-05-10T11:38:06.698Z,92.10
2019-05-10T11:40:35.037Z,89.90
2019-05-10T11:43:03.531Z,91.50
2019-05-10T11:45:35.242Z,91.60
2019-05-10T11:48:03.534Z,90.50
2019-05-10T11:50:35.451Z,84.30
2019-05-10T11:55:35.720Z,85.40
2019-05-10T11:59:04.832Z,90.10
2019-05-10T11:59:05.039Z,84.70
2019-05-10T12:00:37.423Z,91.40
2019-05-10T12:03:12.475Z,92.50
2019-05-10T12:05:37.367Z,93.50
2019-05-10T12:08:06.486Z,94.30
2019-05-10T12:10:35.626Z,96.10
2019-05-10T12:13:14.976Z,96.50
2019-05-10T12:15:35.520Z,97.20
2019-05-10T12:18:05.193Z,96.20
2019-05-10T12:20:51.070Z,97.80
2019-05-10T12:23:05.306Z,96.00
2019-05-10T12:25:51.047Z,98.50
2019-05-10T12:28:05.310Z,94.90
2019-05-10T12:30:34.830Z,92.80
2019-05-10T12:33:09.518Z,88.70
2019-05-10T12:35:40.845Z,87.40
2019-05-10T12:38:06.968Z,87.60
2019-05-10T12:40:36.074Z,91.40
2019-05-10T12:43:05.191Z,87.00
2019-05-10T12:45:34.261Z,82.90
2019-05-10T12:48:03.379Z,82.70
2019-05-10T12:50:32.482Z,81.90
2019-05-10T12:53:07.453Z,78.00
2019-05-10T12:55:32.426Z,76.40
2019-05-10T12:58:01.524Z,76.10
2019-05-10T13:00:30.603Z,78.20
2019-05-10T13:03:12.217Z,84.20
2019-05-10T13:05:32.202Z,83.30
2019-05-10T13:08:01.359Z,77.70
2019-05-10T13:10:30.610Z,84.00
2019-05-10T13:13:00.000Z,75.80
2019-05-10T13:15:31.235Z,76.00
2019-05-10T13:18:00.253Z,77.70
2019-05-10T13:20:30.942Z,78.60
2019-05-10T13:23:00.188Z,80.00
2019-05-10T13:25:29.277Z,79.60
2019-05-10T13:27:58.370Z,78.70
2019-05-10T13:30:28.537Z,77.30
2019-05-10T13:33:00.203Z,75.60
2019-05-10T13:35:29.136Z,77.00
2019-05-10T13:38:03.951Z,77.70
2019-05-10T13:40:38.886Z,76.30
2019-05-10T13:43:04.623Z,80.00
2019-05-10T13:45:37.613Z,81.10
2019-05-10T13:48:06.975Z,78.70
2019-05-10T13:50:55.186Z,79.10
2019-05-10T13:53:24.284Z,77.50
2019-05-10T13:55:53.415Z,77.70
2019-05-10T13:58:22.499Z,77.50
2019-05-10T14:00:51.583Z,75.90
2019-05-10T14:03:20.750Z,74.00
2019-05-10T14:05:49.853Z,73.70
2019-05-10T14:08:19.022Z,71.20
2019-05-10T14:10:49.608Z,73.30
2019-05-10T14:13:19.147Z,74.90
2019-05-10T14:15:48.301Z,73.80
2019-05-10T14:18:37.179Z,72.60
2019-05-10T14:21:06.367Z,75.40
2019-05-10T14:23:37.238Z,71.90
2019-05-10T14:26:09.288Z,70.40
2019-05-10T14:28:37.323Z,71.20
2019-05-10T14:31:06.476Z,72.40
2019-05-10T14:33:35.621Z,72.00
2019-05-10T14:36:04.735Z,71.50
2019-05-10T14:38:33.807Z,69.20
2019-05-10T14:41:03.847Z,69.40
2019-05-10T14:43:33.712Z,70.70
2019-05-10T14:46:02.845Z,70.60
2019-05-10T14:48:35.278Z,70.90
2019-05-10T14:51:10.581Z,72.40
2019-05-10T14:53:33.816Z,69.90
2019-05-10T14:56:07.885Z,71.70
2019-05-10T14:58:33.962Z,72.30
2019-05-10T15:01:03.043Z,73.40
2019-05-10T15:03:35.254Z,71.20
2019-05-10T15:06:02.981Z,70.10
2019-05-10T15:08:32.068Z,69.50
2019-05-10T15:11:01.221Z,70.50
2019-05-10T15:13:30.357Z,71.80
2019-05-10T15:15:59.481Z,73.50
2019-05-10T15:18:28.585Z,75.20
2019-05-10T15:20:57.670Z,77.50
2019-05-10T15:23:26.777Z,79.40
2019-05-10T15:25:57.901Z,81.60
2019-05-10T15:28:26.685Z,80.80
2019-05-10T15:30:55.830Z,81.10
2019-05-10T15:33:24.925Z,83.40
2019-05-10T15:35:54.055Z,83.30
2019-05-10T15:38:23.205Z,83.60
2019-05-10T15:40:52.266Z,84.10
2019-05-10T15:43:21.371Z,85.70
2019-05-10T15:45:54.950Z,86.30
2019-05-10T15:48:21.297Z,85.30
2019-05-10T15:50:50.428Z,83.90
2019-05-10T15:53:25.325Z,81.30
2019-05-10T15:55:50.400Z,81.50
2019-05-10T15:58:19.565Z,81.20
2019-05-10T16:00:48.699Z,81.50
2019-05-10T16:03:17.831Z,84.00
2019-05-10T16:05:59.918Z,84.50
2019-05-10T16:08:17.829Z,83.60
2019-05-10T16:10:46.923Z,83.20
2019-05-10T16:13:23.627Z,81.30
2019-05-10T16:15:51.680Z,80.70
2019-05-10T16:18:17.665Z,81.00
2019-05-10T16:20:46.765Z,81.10
2019-05-10T16:23:15.836Z,82.20
2019-05-10T16:25:48.127Z,82.10
2019-05-10T16:28:20.696Z,84.20
2019-05-10T16:30:47.169Z,84.00
2019-05-10T16:33:18.242Z,81.70
2019-05-10T16:35:49.486Z,82.10
2019-05-10T16:38:18.037Z,79.80
2019-05-10T16:40:56.817Z,78.40
2019-05-10T16:43:23.922Z,78.50
2019-05-10T16:45:48.850Z,79.10
2019-05-10T16:50:45.659Z,79.40
2019-05-10T16:53:14.845Z,77.90
2019-05-10T16:55:43.923Z,78.30
2019-05-10T16:58:15.278Z,77.70
2019-05-10T17:00:46.277Z,77.70
2019-05-10T17:03:18.202Z,76.20
2019-05-10T17:05:52.949Z,75.90
2019-05-10T17:08:16.249Z,75.70
2019-05-10T17:10:45.356Z,75.20
2019-05-10T17:13:14.437Z,73.60
2019-05-10T17:15:44.587Z,72.70
2019-05-10T17:18:17.512Z,71.40
2019-05-10T17:20:45.588Z,71.50
2019-05-10T17:23:15.424Z,70.70
2019-05-10T17:25:44.541Z,69.80
2019-05-10T17:28:13.618Z,70.30
2019-05-10T17:30:44.902Z,70.10
2019-05-10T17:33:13.568Z,70.00
2019-05-10T17:35:44.219Z,70.20
2019-05-10T17:38:14.465Z,70.60
2019-05-10T17:40:47.525Z,69.70
2019-05-10T17:43:20.578Z,70.30
2019-05-10T17:45:46.071Z,72.00
2019-05-10T17:48:15.193Z,73.60
2019-05-10T17:50:45.782Z,75.10
2019-05-10T17:53:15.191Z,76.10
2019-05-10T17:55:49.134Z,76.40
2019-05-10T17:58:17.105Z,77.50
2019-05-10T18:00:46.087Z,78.50
2019-05-10T18:03:15.177Z,80.10
2019-05-10T18:05:46.798Z,81.50
2019-05-10T18:08:15.147Z,84.00
2019-05-10T18:10:44.227Z,85.40
2019-05-10T18:13:13.303Z,87.50
2019-05-10T18:15:42.400Z,89.40
2019-05-10T18:18:11.534Z,91.20
2019-05-10T18:20:44.057Z,93.50
2019-05-10T18:23:20.189Z,96.00
2019-05-10T18:25:42.285Z,97.60
2019-05-10T18:28:11.347Z,99.00
2019-05-10T18:30:40.579Z,99.90
2019-05-10T18:33:12.476Z,99.90
2019-05-10T18:35:40.549Z,99.90
2019-05-10T18:38:09.624Z,99.90
2019-05-10T18:40:38.819Z,99.90
2019-05-10T18:43:07.892Z,99.90
2019-05-10T18:45:37.008Z,99.90
2019-05-10T18:48:06.092Z,99.90
2019-05-10T18:50:39.717Z,99.90
2019-05-10T18:53:06.052Z,99.90
2019-05-10T18:55:35.150Z,99.90
2019-05-10T18:58:04.270Z,99.90
2019-05-10T19:00:33.358Z,99.90
2019-05-10T19:03:02.444Z,99.90
2019-05-10T19:05:33.065Z,99.90
2019-05-10T19:08:08.949Z,99.90
2019-05-10T19:10:38.059Z,99.90
2019-05-10T19:13:07.694Z,99.90
2019-05-10T19:15:37.151Z,99.90
2019-05-10T19:18:06.219Z,99.90
2019-05-10T19:20:35.404Z,99.90
2019-05-10T19:23:05.540Z,99.90
2019-05-10T19:25:37.610Z,99.90
2019-05-10T19:28:05.720Z,99.90
2019-05-10T19:30:34.826Z,99.90
2019-05-10T19:33:03.878Z,99.90
2019-05-10T19:35:35.703Z,99.90
2019-05-10T19:38:04.010Z,99.90
2019-05-10T19:40:33.080Z,99.90
2019-05-10T19:43:02.217Z,99.90
2019-05-10T19:45:31.352Z,99.90
2019-05-10T19:48:00.441Z,99.90
2019-05-10T19:50:31.609Z,99.90
2019-05-10T19:53:03.727Z,99.90
2019-05-10T19:55:31.174Z,99.90
2019-05-10T19:58:00.255Z,99.90
2019-05-10T20:00:29.376Z,99.90
2019-05-10T20:02:58.951Z,99.90
2019-05-10T20:05:28.422Z,99.90
2019-05-10T20:07:57.590Z,99.90
2019-05-10T20:10:26.688Z,99.90
2019-05-10T20:12:55.760Z,99.90
2019-05-10T20:15:24.928Z,99.90
2019-05-10T20:17:54.187Z,99.90
2019-05-10T20:20:23.411Z,99.90
2019-05-10T20:22:53.012Z,99.90
2019-05-10T20:25:22.119Z,99.90
2019-05-10T20:27:51.225Z,99.90
2019-05-10T20:30:21.060Z,99.90
2019-05-10T20:32:52.034Z,99.90
2019-05-10T20:35:21.239Z,99.90
2019-05-10T20:38:01.258Z,99.90
2019-05-10T20:40:21.122Z,99.90
2019-05-10T20:42:50.234Z,99.90
2019-05-10T20:45:19.317Z,99.90
2019-05-10T20:47:48.457Z,99.90
2019-05-10T20:50:17.549Z,99.90
2019-05-10T20:52:46.644Z,99.90
2019-05-10T20:55:15.946Z,99.90
2019-05-10T20:57:45.160Z,99.90
2019-05-10T21:00:14.311Z,99.90
2019-05-10T21:02:43.388Z,99.90
2019-05-10T21:05:12.466Z,99.90
2019-05-10T21:07:41.604Z,99.90
2019-05-10T21:10:10.875Z,99.90
2019-05-10T21:12:39.973Z,99.90
2019-05-10T21:15:09.385Z,99.90
2019-05-10T21:17:38.476Z,99.90
2019-05-10T21:20:07.917Z,99.90
2019-05-10T21:22:36.991Z,99.90
2019-05-10T21:25:06.417Z,99.90
2019-05-10T21:27:35.512Z,99.90
2019-05-10T21:30:04.772Z,99.90
2019-05-10T21:32:33.868Z,99.90
2019-05-10T21:35:02.959Z,99.90
2019-05-10T21:37:32.056Z,99.90
2019-05-10T21:40:01.148Z,99.90
2019-05-10T21:42:30.229Z,99.90
2019-05-10T21:44:59.318Z,99.90
2019-05-10T21:47:28.397Z,99.90
2019-05-10T21:49:57.498Z,99.90
2019-05-10T21:52:26.585Z,99.90
2019-05-10T21:54:55.698Z,99.90
2019-05-10T21:57:24.784Z,99.90
2019-05-10T21:59:53.925Z,99.90
2019-05-10T22:02:22.996Z,99.90
2019-05-10T22:04:52.086Z,99.90
2019-05-10T22:07:21.185Z,99.90
2019-05-10T22:09:50.276Z,99.90
2019-05-10T22:12:19.381Z,99.90
2019-05-10T22:14:48.438Z,99.90
2019-05-10T22:17:17.606Z,99.90
2019-05-10T22:19:46.694Z,99.90
2019-05-10T22:22:15.767Z,99.90
2019-05-10T22:24:44.874Z,99.90
2019-05-10T22:27:13.988Z,99.90
2019-05-10T22:29:43.827Z,99.90
2019-05-10T22:32:12.918Z,99.90
2019-05-10T22:34:41.993Z,99.90
2019-05-10T22:37:11.093Z,99.90
2019-05-10T22:39:40.159Z,99.90
2019-05-10T22:42:09.247Z,99.90
2019-05-10T22:44:39.859Z,99.90
2019-05-10T22:47:08.970Z,99.90
2019-05-10T22:49:38.067Z,99.90
2019-05-10T22:52:07.174Z,99.90
2019-05-10T22:54:36.250Z,99.90
2019-05-10T22:57:05.359Z,99.90
2019-05-10T22:59:34.472Z,99.90
2019-05-10T23:02:03.646Z,99.90
2019-05-10T23:04:32.728Z,99.90
2019-05-10T23:07:01.802Z,99.90
2019-05-10T23:09:30.894Z,99.90
2019-05-10T23:11:59.969Z,99.90
2019-05-10T23:14:29.048Z,99.90
2019-05-10T23:16:58.273Z,99.90
2019-05-10T23:19:27.371Z,99.90
2019-05-10T23:21:56.485Z,99.90
2019-05-10T23:24:40.168Z,99.90
2019-05-10T23:27:09.438Z,99.90
2019-05-10T23:29:40.904Z,99.90
2019-05-10T23:32:09.977Z,99.90
2019-05-10T23:34:39.077Z,99.90
2019-05-10T23:37:08.163Z,99.90
2019-05-10T23:39:40.987Z,99.90
2019-05-10T23:42:08.054Z,99.90
2019-05-10T23:44:37.241Z,99.90
2019-05-10T23:47:06.324Z,99.90
2019-05-10T23:49:35.481Z,99.90
2019-05-10T23:52:04.741Z,99.90
2019-05-10T23:54:33.953Z,99.90
2019-05-10T23:57:03.021Z,99.90
2019-05-10T23:59:32.115Z,99.90
